createdAt,value
2018-05-18T00:00:13.243Z,21.93
2018-05-18T00:02:20.303Z,22.11
2018-05-18T00:04:27.293Z,21.96
2018-05-18T00:06:33.107Z,21.85
2018-05-18T00:08:39.040Z,21.80
2018-05-18T00:10:44.797Z,21.92
2018-05-18T00:12:50.476Z,21.93
2018-05-18T00:14:56.541Z,21.55
2018-05-18T00:17:02.146Z,21.79
2018-05-18T00:19:09.867Z,21.81
2018-05-18T00:21:17.967Z,21.43
2018-05-18T00:23:24.835Z,21.48
2018-05-18T00:25:30.010Z,21.72
2018-05-18T00:27:36.141Z,21.54
2018-05-18T00:29:41.974Z,21.33
2018-05-18T00:31:47.874Z,21.84
2018-05-18T00:33:53.949Z,21.90
2018-05-18T00:35:59.577Z,21.88
2018-05-18T00:38:04.859Z,22.17
2018-05-18T00:40:14.140Z,21.94
2018-05-18T00:42:20.970Z,22.14
2018-05-18T00:44:26.357Z,22.27
2018-05-18T00:46:31.813Z,22.37
2018-05-18T00:48:37.889Z,22.22
2018-05-18T00:50:44.029Z,22.36
2018-05-18T00:52:50.355Z,22.45
2018-05-18T00:54:56.189Z,22.41
2018-05-18T00:57:02.160Z,22.46
2018-05-18T00:59:08.472Z,22.39
2018-05-18T01:01:16.712Z,22.27
2018-05-18T01:03:23.898Z,22.32
2018-05-18T01:05:29.927Z,22.35
2018-05-18T01:07:35.691Z,22.35
2018-05-18T01:09:40.849Z,22.46
2018-05-18T01:11:46.121Z,22.25
2018-05-18T01:13:52.325Z,22.37
2018-05-18T01:15:57.567Z,22.39
2018-05-18T01:18:03.553Z,22.43
2018-05-18T01:20:12.253Z,22.38
2018-05-18T01:22:19.294Z,22.35
2018-05-18T01:24:25.439Z,22.37
2018-05-18T01:26:31.571Z,22.10
2018-05-18T01:28:37.162Z,22.16
2018-05-18T01:30:43.082Z,21.72
2018-05-18T01:32:49.182Z,21.64
2018-05-18T01:34:54.995Z,21.92
2018-05-18T01:37:01.224Z,21.88
2018-05-18T01:39:10.253Z,21.80
2018-05-18T01:41:17.294Z,21.87
2018-05-18T01:43:25.126Z,22.07
2018-05-18T01:45:31.445Z,22.16
2018-05-18T01:47:38.034Z,21.50
2018-05-18T01:49:44.093Z,21.82
2018-05-18T01:51:50.480Z,21.83
2018-05-18T01:53:56.485Z,21.80
2018-05-18T01:56:02.655Z,21.80
2018-05-18T01:58:11.037Z,21.81
2018-05-18T02:00:19.619Z,21.85
2018-05-18T02:02:25.578Z,21.76
2018-05-18T02:04:31.433Z,21.96
2018-05-18T02:06:36.919Z,22.04
2018-05-18T02:08:43.248Z,21.98
2018-05-18T02:10:49.555Z,21.73
2018-05-18T02:12:55.241Z,21.66
2018-05-18T02:15:01.354Z,21.55
2018-05-18T02:17:09.020Z,21.57
2018-05-18T02:19:17.366Z,21.69
2018-05-18T02:21:24.188Z,21.81
2018-05-18T02:23:30.584Z,21.55
2018-05-18T02:25:36.871Z,21.83
2018-05-18T02:27:42.929Z,21.42
2018-05-18T02:29:49.361Z,21.72
2018-05-18T02:31:55.666Z,21.88
2018-05-18T02:34:02.367Z,22.06
2018-05-18T02:36:10.024Z,22.16
2018-05-18T02:38:18.074Z,22.04
2018-05-18T02:40:25.234Z,21.60
2018-05-18T02:42:30.800Z,21.97
2018-05-18T02:44:37.152Z,21.66
2018-05-18T02:46:43.364Z,21.84
2018-05-18T02:48:48.920Z,21.82
2018-05-18T02:50:54.989Z,21.69
2018-05-18T02:53:00.862Z,21.77
2018-05-18T02:55:06.891Z,21.79
2018-05-18T02:57:15.835Z,21.69
2018-05-18T02:59:22.553Z,21.99
2018-05-18T03:01:27.858Z,21.87
2018-05-18T03:03:33.997Z,21.94
2018-05-18T03:05:39.552Z,21.67
2018-05-18T03:07:45.504Z,21.69
2018-05-18T03:09:51.614Z,21.64
2018-05-18T03:11:58.196Z,21.54
2018-05-18T03:14:03.546Z,21.40
2018-05-18T03:16:11.019Z,21.61
2018-05-18T03:18:19.124Z,21.37
2018-05-18T03:20:25.374Z,21.44
2018-05-18T03:22:30.686Z,21.38
2018-05-18T03:24:36.433Z,21.45
2018-05-18T03:26:42.136Z,21.44
2018-05-18T03:28:47.957Z,21.67
2018-05-18T03:30:53.882Z,21.89
2018-05-18T03:32:59.775Z,21.74
2018-05-18T03:35:05.478Z,21.50
2018-05-18T03:37:14.998Z,21.69
2018-05-18T03:39:21.636Z,21.76
2018-05-18T03:41:27.404Z,21.75
2018-05-18T03:43:32.553Z,21.63
2018-05-18T03:45:37.729Z,21.19
2018-05-18T03:47:42.942Z,21.68
2018-05-18T03:49:48.653Z,21.76
2018-05-18T03:51:54.392Z,21.88
2018-05-18T03:53:59.880Z,22.04
2018-05-18T03:56:05.577Z,21.33
2018-05-18T03:58:14.472Z,21.52
2018-05-18T04:00:22.099Z,21.79
2018-05-18T04:04:41.669Z,21.40
2018-05-18T04:07:58.433Z,21.63
2018-05-18T04:10:03.991Z,21.64
2018-05-18T04:12:12.050Z,21.94
2018-05-18T04:14:19.456Z,21.78
2018-05-18T04:16:25.617Z,21.96
2018-05-18T04:18:31.389Z,22.07
2018-05-18T04:20:36.590Z,21.69
2018-05-18T04:22:42.236Z,21.48
2018-05-18T04:24:47.797Z,21.56
2018-05-18T04:26:52.966Z,20.98
2018-05-18T04:28:58.817Z,21.55
2018-05-18T04:31:04.745Z,21.40
2018-05-18T04:33:13.531Z,21.76
2018-05-18T04:35:21.169Z,21.55
2018-05-18T04:37:27.458Z,21.66
2018-05-18T04:39:33.171Z,21.57
2018-05-18T04:41:38.713Z,21.52
2018-05-18T04:43:43.889Z,21.37
2018-05-18T04:45:49.106Z,20.97
2018-05-18T04:47:54.626Z,21.00
2018-05-18T04:49:59.807Z,21.47
2018-05-18T04:52:05.479Z,21.65
2018-05-18T04:54:14.597Z,21.23
2018-05-18T04:56:20.883Z,21.11
2018-05-18T04:58:26.749Z,21.40
2018-05-18T05:00:32.192Z,21.21
2018-05-18T05:02:37.405Z,21.37
2018-05-18T05:04:42.650Z,21.48
2018-05-18T05:06:48.429Z,21.02
2018-05-18T05:08:53.986Z,20.87
2018-05-18T05:10:59.366Z,20.64
2018-05-18T05:13:05.057Z,20.89
2018-05-18T05:15:14.302Z,21.18
2018-05-18T05:17:22.341Z,21.48
2018-05-18T05:19:27.972Z,21.14
2018-05-18T05:21:33.131Z,21.17
2018-05-18T05:23:38.333Z,21.27
2018-05-18T05:25:43.821Z,21.00
2018-05-18T05:27:50.227Z,21.06
2018-05-18T05:29:55.676Z,21.31
2018-05-18T05:32:01.309Z,21.21
2018-05-18T05:34:07.314Z,21.18
2018-05-18T05:36:16.612Z,21.32
2018-05-18T05:38:24.629Z,21.32
2018-05-18T05:40:29.873Z,21.48
2018-05-18T05:42:35.057Z,21.46
2018-05-18T05:44:40.926Z,21.15
2018-05-18T05:46:46.536Z,21.55
2018-05-18T05:48:51.754Z,20.90
2018-05-18T05:50:57.278Z,21.22
2018-05-18T05:53:02.553Z,21.24
2018-05-18T05:55:09.427Z,21.49
2018-05-18T05:57:18.601Z,21.13
2018-05-18T05:59:24.787Z,21.24
2018-05-18T06:01:29.960Z,21.10
2018-05-18T06:03:35.449Z,21.50
2018-05-18T06:05:41.188Z,21.33
2018-05-18T06:07:49.553Z,21.77
2018-05-18T06:09:55.172Z,21.75
2018-05-18T06:12:00.364Z,21.41
2018-05-18T06:14:06.362Z,21.18
2018-05-18T06:16:15.333Z,21.54
2018-05-18T06:18:21.578Z,21.63
2018-05-18T06:20:26.978Z,21.47
2018-05-18T06:22:32.640Z,21.30
2018-05-18T06:24:37.973Z,21.67
2018-05-18T06:26:43.138Z,21.65
2018-05-18T06:28:48.658Z,21.62
2018-05-18T06:30:53.858Z,21.72
2018-05-18T06:32:59.092Z,21.48
2018-05-18T06:35:04.815Z,21.67
2018-05-18T06:37:12.945Z,22.04
2018-05-18T06:39:19.824Z,21.83
2018-05-18T06:41:25.653Z,22.08
2018-05-18T06:43:30.858Z,22.13
2018-05-18T06:45:36.178Z,22.13
2018-05-18T06:47:41.670Z,21.78
2018-05-18T06:49:47.287Z,22.12
2018-05-18T06:51:52.780Z,21.86
2018-05-18T06:53:58.658Z,21.80
2018-05-18T06:56:03.877Z,21.95
2018-05-18T06:58:11.919Z,21.68
2018-05-18T07:00:18.676Z,21.90
2018-05-18T07:02:25.735Z,21.72
2018-05-18T07:04:30.971Z,22.04
2018-05-18T07:06:36.474Z,21.76
2018-05-18T07:08:41.744Z,21.75
2018-05-18T07:10:46.975Z,21.91
2018-05-18T07:12:52.600Z,21.54
2018-05-18T07:14:58.195Z,21.82
2018-05-18T07:17:03.728Z,21.78
2018-05-18T07:19:10.739Z,21.91
2018-05-18T07:21:18.083Z,22.03
2018-05-18T07:23:24.122Z,22.18
2018-05-18T07:25:29.673Z,22.18
2018-05-18T07:27:35.128Z,22.48
2018-05-18T07:29:40.451Z,22.13
2018-05-18T07:31:46.095Z,22.28
2018-05-18T07:33:51.441Z,21.94
2018-05-18T07:35:56.923Z,22.28
2018-05-18T07:38:02.543Z,22.49
2018-05-18T07:40:11.336Z,22.11
2018-05-18T07:42:17.657Z,22.20
2018-05-18T07:44:24.065Z,22.35
2018-05-18T07:46:29.403Z,22.66
2018-05-18T07:48:34.610Z,22.37
2018-05-18T07:50:42.239Z,22.23
2018-05-18T07:52:47.624Z,21.81
2018-05-18T07:54:52.895Z,22.44
2018-05-18T07:56:58.729Z,22.14
2018-05-18T07:59:04.105Z,22.10
2018-05-18T08:01:14.313Z,22.33
2018-05-18T08:03:21.197Z,22.74
2018-05-18T08:05:27.423Z,22.57
2018-05-18T08:07:32.809Z,22.26
2018-05-18T08:09:39.425Z,22.33
2018-05-18T08:11:44.717Z,22.21
2018-05-18T08:13:49.860Z,21.87
2018-05-18T08:15:55.398Z,22.22
2018-05-18T08:18:00.717Z,22.18
2018-05-18T08:20:06.391Z,22.25
2018-05-18T08:22:15.447Z,22.49
2018-05-18T08:24:23.128Z,22.01
2018-05-18T08:26:28.411Z,22.20
2018-05-18T08:28:42.985Z,22.22
2018-05-18T08:30:56.722Z,22.39
2018-05-18T08:33:02.016Z,22.77
2018-05-18T08:35:08.748Z,22.97
2018-05-18T08:37:16.625Z,22.88
2018-05-18T08:39:23.083Z,23.07
2018-05-18T08:41:28.807Z,23.09
2018-05-18T08:43:34.220Z,23.01
2018-05-18T08:45:39.413Z,23.02
2018-05-18T08:47:45.018Z,22.75
2018-05-18T08:49:50.143Z,23.14
2018-05-18T08:51:55.559Z,23.21
2018-05-18T08:54:01.067Z,23.40
2018-05-18T08:56:07.236Z,23.40
2018-05-18T08:58:14.791Z,23.47
2018-05-18T09:00:23.402Z,23.54
2018-05-18T09:02:29.223Z,23.60
2018-05-18T09:04:34.514Z,23.46
2018-05-18T09:06:40.748Z,23.00
2018-05-18T09:08:46.081Z,22.60
2018-05-18T09:10:51.312Z,23.12
2018-05-18T09:12:56.985Z,23.34
2018-05-18T09:17:24.323Z,23.31
2018-05-18T09:19:29.793Z,23.31
2018-05-18T09:21:35.121Z,23.48
2018-05-18T09:23:41.099Z,23.74
2018-05-18T09:25:46.621Z,23.64
2018-05-18T09:27:51.949Z,23.50
2018-05-18T09:29:58.746Z,23.56
2018-05-18T09:32:04.253Z,23.57
2018-05-18T09:34:12.029Z,23.59
2018-05-18T09:36:18.605Z,23.50
2018-05-18T09:38:25.594Z,23.36
2018-05-18T09:40:31.002Z,23.45
2018-05-18T09:42:36.712Z,23.31
2018-05-18T09:44:43.090Z,23.42
2018-05-18T09:46:48.478Z,23.47
2018-05-18T09:48:54.309Z,23.21
2018-05-18T09:51:00.214Z,23.23
2018-05-18T09:53:05.684Z,23.41
2018-05-18T09:55:14.399Z,23.44
2018-05-18T09:57:21.435Z,22.82
2018-05-18T09:59:26.747Z,23.22
2018-05-18T10:01:32.183Z,23.32
2018-05-18T10:03:37.945Z,23.01
2018-05-18T10:05:43.761Z,22.84
2018-05-18T10:07:49.279Z,22.46
2018-05-18T10:09:55.357Z,23.15
2018-05-18T10:12:00.522Z,23.20
2018-05-18T10:14:06.277Z,23.46
2018-05-18T10:16:13.676Z,23.05
2018-05-18T10:18:20.828Z,23.07
2018-05-18T10:20:28.200Z,23.03
2018-05-18T10:22:33.669Z,23.04
2018-05-18T10:24:39.876Z,23.11
2018-05-18T10:26:45.206Z,23.38
2018-05-18T10:28:50.885Z,23.44
2018-05-18T10:30:56.171Z,23.24
2018-05-18T10:33:01.497Z,23.29
2018-05-18T10:35:07.400Z,23.39
2018-05-18T10:37:14.761Z,23.28
2018-05-18T10:39:21.637Z,22.54
2018-05-18T10:41:29.434Z,22.57
2018-05-18T10:43:35.124Z,22.55
2018-05-18T10:45:40.450Z,22.95
2018-05-18T10:47:46.542Z,22.89
2018-05-18T10:49:51.950Z,23.14
2018-05-18T10:51:57.141Z,23.20
2018-05-18T10:54:03.137Z,23.37
2018-05-18T10:56:09.816Z,23.13
2018-05-18T10:58:16.976Z,23.06
2018-05-18T11:00:24.657Z,22.89
2018-05-18T11:02:29.835Z,22.83
2018-05-18T11:04:35.714Z,23.19
2018-05-18T11:06:41.238Z,23.35
2018-05-18T11:08:46.477Z,23.32
2018-05-18T11:10:51.806Z,23.29
2018-05-18T11:12:57.455Z,23.37
2018-05-18T11:15:02.998Z,23.58
2018-05-18T11:17:10.433Z,23.48
2018-05-18T11:19:20.110Z,23.78
2018-05-18T11:21:26.382Z,23.19
2018-05-18T11:23:31.683Z,23.37
2018-05-18T11:25:38.226Z,23.15
2018-05-18T11:27:44.046Z,23.60
2018-05-18T11:29:49.145Z,23.83
2018-05-18T11:31:54.626Z,23.26
2018-05-18T11:33:59.902Z,23.01
2018-05-18T11:36:05.358Z,23.33
2018-05-18T11:38:14.414Z,23.42
2018-05-18T11:40:21.683Z,23.23
2018-05-18T11:42:27.161Z,23.22
2018-05-18T11:44:32.751Z,23.11
2018-05-18T11:46:38.074Z,22.47
2018-05-18T11:48:43.420Z,23.01
2018-05-18T11:50:48.925Z,22.78
2018-05-18T11:52:54.226Z,23.10
2018-05-18T11:54:59.542Z,23.05
2018-05-18T11:57:05.134Z,22.96
2018-05-18T11:59:13.553Z,22.92
2018-05-18T12:01:20.971Z,22.86
2018-05-18T12:03:26.618Z,23.31
2018-05-18T12:05:31.887Z,23.71
2018-05-18T12:07:37.014Z,23.74
2018-05-18T12:09:42.438Z,23.63
2018-05-18T12:11:47.607Z,23.84
2018-05-18T12:13:52.776Z,24.02
2018-05-18T12:15:58.160Z,23.09
2018-05-18T12:18:03.301Z,23.09
2018-05-18T12:20:10.317Z,23.42
2018-05-18T12:22:17.919Z,23.47
2018-05-18T12:24:23.775Z,22.89
2018-05-18T12:26:29.036Z,22.59
2018-05-18T12:28:34.576Z,22.91
2018-05-18T12:30:39.994Z,23.37
2018-05-18T12:32:45.318Z,23.90
2018-05-18T12:34:50.749Z,24.00
2018-05-18T12:36:56.001Z,23.70
2018-05-18T12:39:01.166Z,24.05
2018-05-18T12:41:07.309Z,23.36
2018-05-18T12:43:15.816Z,23.44
2018-05-18T12:45:22.703Z,23.89
2018-05-18T12:47:29.094Z,23.72
2018-05-18T12:49:34.258Z,23.49
2018-05-18T12:51:39.419Z,23.52
2018-05-18T12:53:45.354Z,23.54
2018-05-18T12:55:50.470Z,23.62
2018-05-18T12:57:55.648Z,23.89
2018-05-18T13:00:01.070Z,24.02
2018-05-18T13:02:06.602Z,23.85
2018-05-18T13:04:14.577Z,23.21
2018-05-18T13:06:20.397Z,23.38
2018-05-18T13:08:26.436Z,23.57
2018-05-18T13:10:31.567Z,23.61
2018-05-18T13:12:37.043Z,24.12
2018-05-18T13:14:42.221Z,24.31
2018-05-18T13:16:47.331Z,24.42
2018-05-18T13:18:52.914Z,24.50
2018-05-18T13:20:58.122Z,24.58
2018-05-18T13:23:03.337Z,24.66
2018-05-18T13:25:09.761Z,24.70
2018-05-18T13:27:16.635Z,24.73
2018-05-18T13:29:22.458Z,24.81
2018-05-18T13:31:28.288Z,24.88
2018-05-18T13:33:33.425Z,24.91
2018-05-18T13:35:38.754Z,24.92
2018-05-18T13:37:44.622Z,25.02
2018-05-18T13:39:49.939Z,25.15
2018-05-18T13:41:55.527Z,26.25
2018-05-18T13:44:01.494Z,26.12
2018-05-18T13:46:06.753Z,25.93
2018-05-18T13:48:15.089Z,25.69
2018-05-18T13:50:21.588Z,25.50
2018-05-18T13:52:27.626Z,25.36
2018-05-18T13:54:33.450Z,25.32
2018-05-18T13:56:39.402Z,25.24
2018-05-18T13:58:44.618Z,25.19
2018-05-18T14:00:49.887Z,25.16
2018-05-18T14:02:55.990Z,25.14
2018-05-18T14:05:01.298Z,25.13
2018-05-18T14:07:07.434Z,25.15
2018-05-18T14:09:16.311Z,25.17
2018-05-18T14:11:22.105Z,25.20
2018-05-18T14:13:27.326Z,25.24
2018-05-18T14:15:32.874Z,25.31
2018-05-18T14:17:37.997Z,25.37
2018-05-18T14:19:43.167Z,25.44
2018-05-18T14:21:48.978Z,25.51
2018-05-18T14:23:54.130Z,25.55
2018-05-18T14:25:59.356Z,25.55
2018-05-18T14:28:04.779Z,25.47
2018-05-18T14:30:13.373Z,25.37
2018-05-18T14:32:19.573Z,25.30
2018-05-18T14:34:26.838Z,25.23
2018-05-18T14:36:32.011Z,25.20
2018-05-18T14:38:37.194Z,25.19
2018-05-18T14:40:43.173Z,25.20
2018-05-18T14:42:48.479Z,25.20
2018-05-18T14:44:53.726Z,25.24
2018-05-18T14:46:59.155Z,25.26
2018-05-18T14:49:04.394Z,25.35
2018-05-18T14:51:12.289Z,25.37
2018-05-18T14:53:20.158Z,25.34
2018-05-18T14:55:25.500Z,25.29
2018-05-18T14:57:30.640Z,25.31
2018-05-18T14:59:36.131Z,25.29
2018-05-18T15:01:41.303Z,25.29
2018-05-18T15:03:46.479Z,25.32
2018-05-18T15:05:51.903Z,25.35
2018-05-18T15:07:57.204Z,25.34
2018-05-18T15:10:02.409Z,25.26
2018-05-18T15:12:09.843Z,25.18
2018-05-18T15:14:17.602Z,25.07
2018-05-18T15:16:23.244Z,25.02
2018-05-18T15:18:28.845Z,25.03
2018-05-18T15:20:34.035Z,25.04
2018-05-18T15:22:39.858Z,25.04
2018-05-18T15:24:45.317Z,25.03
2018-05-18T15:26:50.547Z,25.03
2018-05-18T15:28:55.832Z,25.05
2018-05-18T15:31:01.347Z,25.07
2018-05-18T15:33:06.990Z,25.11
2018-05-18T15:35:15.125Z,25.12
2018-05-18T15:37:22.444Z,25.06
2018-05-18T15:39:27.699Z,25.01
2018-05-18T15:41:32.841Z,24.96
2018-05-18T15:43:38.337Z,24.91
2018-05-18T15:45:43.591Z,24.92
2018-05-18T15:47:48.702Z,24.94
2018-05-18T15:49:54.933Z,24.94
2018-05-18T15:52:00.261Z,24.93
2018-05-18T15:54:05.719Z,24.93
2018-05-18T15:56:14.615Z,24.92
2018-05-18T15:58:21.944Z,24.89
2018-05-18T16:00:27.391Z,24.86
2018-05-18T16:02:33.599Z,24.84
2018-05-18T16:04:41.107Z,24.83
2018-05-18T16:06:48.065Z,24.82
2018-05-18T16:08:53.472Z,24.80
2018-05-18T16:10:58.714Z,24.82
2018-05-18T16:13:04.076Z,24.81
2018-05-18T16:15:12.479Z,24.82
2018-05-18T16:17:19.763Z,24.84
2018-05-18T16:19:25.317Z,24.83
2018-05-18T16:21:30.768Z,24.85
2018-05-18T16:23:35.944Z,24.86
2018-05-18T16:25:41.144Z,24.86
2018-05-18T16:27:46.590Z,24.88
2018-05-18T16:29:52.021Z,24.93
2018-05-18T16:31:57.189Z,24.96
2018-05-18T16:34:02.600Z,24.94
2018-05-18T16:36:09.125Z,24.94
2018-05-18T16:38:19.693Z,24.96
2018-05-18T16:40:25.415Z,24.98
2018-05-18T16:42:30.583Z,24.99
2018-05-18T16:44:35.674Z,25.00
2018-05-18T16:46:41.320Z,25.03
2018-05-18T16:48:46.698Z,25.04
2018-05-18T16:50:51.795Z,25.04
2018-05-18T16:52:57.237Z,25.03
2018-05-18T16:55:02.485Z,25.02
2018-05-18T16:57:08.002Z,25.03
2018-05-18T16:59:16.726Z,25.01
2018-05-18T17:01:22.954Z,25.02
2018-05-18T17:03:28.130Z,25.01
2018-05-18T17:05:33.462Z,25.00
2018-05-18T17:07:38.605Z,25.02
2018-05-18T17:09:43.924Z,24.99
2018-05-18T17:11:49.377Z,25.00
2018-05-18T17:13:54.591Z,24.99
2018-05-18T17:15:59.806Z,24.99
2018-05-18T17:18:05.610Z,24.96
2018-05-18T17:20:14.216Z,24.94
2018-05-18T17:22:21.431Z,24.90
2018-05-18T17:24:27.267Z,24.89
2018-05-18T17:26:32.662Z,24.87
2018-05-18T17:28:37.811Z,24.84
2018-05-18T17:30:43.336Z,24.82
2018-05-18T17:32:48.585Z,24.80
2018-05-18T17:34:54.111Z,24.75
2018-05-18T17:37:00.015Z,24.69
2018-05-18T17:39:05.931Z,24.70
2018-05-18T17:41:14.047Z,24.67
2018-05-18T17:43:23.790Z,24.64
2018-05-18T17:45:30.296Z,24.60
2018-05-18T17:47:35.420Z,24.59
2018-05-18T17:49:40.884Z,24.56
2018-05-18T17:51:46.309Z,24.54
2018-05-18T17:53:54.615Z,24.54
2018-05-18T17:56:00.167Z,24.51
2018-05-18T17:58:05.833Z,24.48
2018-05-18T18:00:15.132Z,24.44
2018-05-18T18:02:23.273Z,24.43
2018-05-18T18:04:29.783Z,24.39
2018-05-18T18:06:35.111Z,24.39
2018-05-18T18:08:41.045Z,24.38
2018-05-18T18:10:46.741Z,24.35
2018-05-18T18:12:52.394Z,24.33
2018-05-18T18:14:58.056Z,24.29
2018-05-18T18:17:03.203Z,24.26
2018-05-18T18:19:10.379Z,24.24
2018-05-18T18:21:18.960Z,24.21
2018-05-18T18:23:25.006Z,24.18
2018-05-18T18:25:30.679Z,24.16
2018-05-18T18:27:36.491Z,24.13
2018-05-18T18:29:42.049Z,24.13
2018-05-18T18:31:47.869Z,24.11
2018-05-18T18:33:53.823Z,24.08
2018-05-18T18:35:59.493Z,24.04
2018-05-18T18:38:05.205Z,24.04
2018-05-18T18:40:14.213Z,24.01
2018-05-18T18:42:21.133Z,23.98
2018-05-18T18:44:26.670Z,23.96
2018-05-18T18:46:32.349Z,23.92
2018-05-18T18:48:38.021Z,23.89
2018-05-18T18:50:43.155Z,23.89
2018-05-18T18:52:49.406Z,23.86
2018-05-18T18:54:54.718Z,23.84
2018-05-18T18:57:00.054Z,23.83
2018-05-18T18:59:05.795Z,23.82
2018-05-18T19:01:14.953Z,23.80
2018-05-18T19:03:22.514Z,23.77
2018-05-18T19:05:28.417Z,23.76
2018-05-18T19:07:34.244Z,23.75
2018-05-18T19:09:40.090Z,23.72
2018-05-18T19:11:45.865Z,23.70
2018-05-18T19:13:51.235Z,23.67
2018-05-18T19:15:56.495Z,23.66
2018-05-18T19:18:02.359Z,23.65
2018-05-18T19:22:21.642Z,23.65
2018-05-18T19:24:27.575Z,23.64
2018-05-18T19:26:33.219Z,23.61
2018-05-18T19:28:38.974Z,23.56
2018-05-18T19:30:45.104Z,23.56
2018-05-18T19:32:51.033Z,23.57
2018-05-18T19:34:57.007Z,23.59
2018-05-18T19:37:02.798Z,23.51
2018-05-18T19:39:09.255Z,23.55
2018-05-18T19:41:17.035Z,23.51
2018-05-18T19:43:24.605Z,23.50
2018-05-18T19:45:29.892Z,23.52
2018-05-18T19:47:35.135Z,23.48
2018-05-18T19:49:40.766Z,23.48
2018-05-18T19:51:46.755Z,23.48
2018-05-18T19:53:52.108Z,23.46
2018-05-18T19:55:57.704Z,23.45
2018-05-18T19:58:03.148Z,23.39
2018-05-18T20:00:09.287Z,23.41
2018-05-18T20:02:18.545Z,23.43
2018-05-18T20:04:24.896Z,23.41
2018-05-18T20:06:30.231Z,23.42
2018-05-18T20:08:35.746Z,23.40
2018-05-18T20:10:40.863Z,23.41
2018-05-18T20:12:45.945Z,23.40
2018-05-18T20:14:51.363Z,23.39
2018-05-18T20:16:56.478Z,23.36
2018-05-18T20:19:01.584Z,23.35
2018-05-18T20:21:07.688Z,23.33
2018-05-18T20:23:15.842Z,23.33
2018-05-18T20:25:24.126Z,23.31
2018-05-18T20:27:29.475Z,23.31
2018-05-18T20:29:34.617Z,23.31
2018-05-18T20:31:39.698Z,23.28
2018-05-18T20:33:45.202Z,23.28
2018-05-18T20:35:50.256Z,23.27
2018-05-18T20:37:55.658Z,23.24
2018-05-18T20:40:01.176Z,23.24
2018-05-18T20:42:07.021Z,23.21
2018-05-18T20:44:15.594Z,23.22
2018-05-18T20:46:23.311Z,23.21
2018-05-18T20:48:28.402Z,23.20
2018-05-18T20:50:33.514Z,23.19
2018-05-18T20:52:38.966Z,23.17
2018-05-18T20:54:44.103Z,23.14
2018-05-18T20:56:49.202Z,23.17
2018-05-18T20:58:54.573Z,23.16
2018-05-18T21:00:59.695Z,23.13
2018-05-18T21:03:04.920Z,23.13
2018-05-18T21:05:10.827Z,23.13
2018-05-18T21:07:19.524Z,23.14
2018-05-18T21:09:25.152Z,23.13
2018-05-18T21:11:30.518Z,23.13
2018-05-18T21:13:35.650Z,23.13
2018-05-18T21:15:40.850Z,23.12
2018-05-18T21:17:46.328Z,23.11
2018-05-18T21:19:51.568Z,23.11
2018-05-18T21:21:56.991Z,23.11
2018-05-18T21:24:02.458Z,23.11
2018-05-18T21:26:08.347Z,23.10
2018-05-18T21:28:16.607Z,23.11
2018-05-18T21:30:23.141Z,23.13
2018-05-18T21:32:29.044Z,23.15
2018-05-18T21:34:34.151Z,23.14
2018-05-18T21:36:39.677Z,23.15
2018-05-18T21:38:44.831Z,23.18
2018-05-18T21:40:49.902Z,23.18
2018-05-18T21:42:55.971Z,23.19
2018-05-18T21:45:01.958Z,23.19
2018-05-18T21:47:08.508Z,23.19
2018-05-18T21:49:16.788Z,23.15
2018-05-18T21:51:23.606Z,23.19
2018-05-18T21:53:30.299Z,23.18
2018-05-18T21:55:36.514Z,23.17
2018-05-18T21:57:42.006Z,23.18
2018-05-18T21:59:47.773Z,23.18
2018-05-18T22:01:53.360Z,23.19
2018-05-18T22:03:58.553Z,23.19
2018-05-18T22:06:03.824Z,23.22
2018-05-18T22:08:10.123Z,23.22
2018-05-18T22:10:18.964Z,23.20
2018-05-18T22:12:25.047Z,23.20
2018-05-18T22:14:31.181Z,23.21
2018-05-18T22:16:36.942Z,23.22
2018-05-18T22:18:42.285Z,23.21
2018-05-18T22:20:48.064Z,23.20
2018-05-18T22:22:54.133Z,23.24
2018-05-18T22:24:59.329Z,23.24
2018-05-18T22:27:04.869Z,23.23
2018-05-18T22:29:13.714Z,23.22
2018-05-18T22:31:20.054Z,23.22
2018-05-18T22:33:25.961Z,23.20
2018-05-18T22:35:31.253Z,23.22
2018-05-18T22:37:37.177Z,23.22
2018-05-18T22:39:43.484Z,23.22
2018-05-18T22:41:48.682Z,23.22
2018-05-18T22:43:54.361Z,23.22
2018-05-18T22:46:00.457Z,23.21
2018-05-18T22:48:06.874Z,23.22
2018-05-18T22:50:16.167Z,23.22
2018-05-18T22:52:22.854Z,23.21
2018-05-18T22:54:28.421Z,23.20
2018-05-18T22:56:33.918Z,23.20
2018-05-18T22:58:39.822Z,23.19
2018-05-18T23:00:45.473Z,23.15
2018-05-18T23:02:50.695Z,23.20
2018-05-18T23:04:56.119Z,23.22
2018-05-18T23:07:01.496Z,23.23
2018-05-18T23:09:07.116Z,23.19
2018-05-18T23:11:15.672Z,23.19
2018-05-18T23:13:22.951Z,23.19
2018-05-18T23:15:28.708Z,23.19
2018-05-18T23:17:34.757Z,23.20
2018-05-18T23:19:40.016Z,23.20
2018-05-18T23:21:45.603Z,23.21
2018-05-18T23:23:51.171Z,23.19
2018-05-18T23:25:56.954Z,23.18
2018-05-18T23:28:02.878Z,23.19
2018-05-18T23:30:12.877Z,23.19
2018-05-18T23:32:20.304Z,23.19
2018-05-18T23:34:25.857Z,23.19
2018-05-18T23:36:31.901Z,23.18
2018-05-18T23:38:37.287Z,23.21
2018-05-18T23:40:43.197Z,23.17
2018-05-18T23:42:49.710Z,23.18
2018-05-18T23:44:55.717Z,23.17
2018-05-18T23:47:01.720Z,23.19
2018-05-18T23:49:08.935Z,23.18
2018-05-18T23:51:16.700Z,23.14
2018-05-18T23:53:24.787Z,23.17
2018-05-18T23:55:30.322Z,23.16
2018-05-18T23:57:36.874Z,23.19
2018-05-18T23:59:42.830Z,23.18
